Terminal Aerodrome Forecast
Issued by NWS Wilmington, OH

Current Version | Previous Version | Text Only | Print | Product List | Glossary Off
Versions: 1 2 3 4 5 6 7 8 9 10 11 12 13 14 15 16 17 18 19 20 21 22 23 24 25 26 27 28 29 30

612
FTUS41 KILN 032359
TAFCVG
TAF
KCVG 032359Z 0400/0506 09005KT P6SM OVC035
     FM040300 08003KT P6SM FEW035 BKN110
     FM041400 11007KT P6SM BKN040
     FM041800 14007KT P6SM -SHRA OVC025
     FM050000 17005KT 5SM -SHRA BR OVC015=

USA.gov is the U.S. government's official web portal to all federal, state and local government web resources and services.